sensor_id;sensor_type;location;lat;lon;timestamp;P1;durP1;ratioP1;P2;durP2;ratioP2
6113;SDS011;3087;48.392;10.836;2022-07-05T00:01:01;6.35;;;3.30;;
6113;SDS011;3087;48.392;10.836;2022-07-05T00:03:27;4.80;;;3.60;;
6113;SDS011;3087;48.392;10.836;2022-07-05T00:05:53;4.88;;;4.07;;
6113;SDS011;3087;48.392;10.836;2022-07-05T00:08:20;7.78;;;3.78;;
6113;SDS011;3087;48.392;10.836;2022-07-05T00:10:45;6.03;;;3.58;;
6113;SDS011;3087;48.392;10.836;2022-07-05T00:13:12;3.63;;;3.15;;
6113;SDS011;3087;48.392;10.836;2022-07-05T00:15:38;3.97;;;3.58;;
6113;SDS011;3087;48.392;10.836;2022-07-05T00:18:03;3.47;;;3.17;;
6113;SDS011;3087;48.392;10.836;2022-07-05T00:20:29;3.53;;;3.15;;
6113;SDS011;3087;48.392;10.836;2022-07-05T00:22:55;3.85;;;3.45;;
6113;SDS011;3087;48.392;10.836;2022-07-05T00:25:20;4.60;;;3.42;;
6113;SDS011;3087;48.392;10.836;2022-07-05T00:27:46;3.10;;;2.80;;
6113;SDS011;3087;48.392;10.836;2022-07-05T00:30:12;4.82;;;3.60;;
6113;SDS011;3087;48.392;10.836;2022-07-05T00:32:38;5.18;;;3.58;;
6113;SDS011;3087;48.392;10.836;2022-07-05T00:35:04;4.28;;;3.15;;
6113;SDS011;3087;48.392;10.836;2022-07-05T00:37:31;5.72;;;3.45;;
6113;SDS011;3087;48.392;10.836;2022-07-05T00:39:56;3.42;;;3.10;;
6113;SDS011;3087;48.392;10.836;2022-07-05T00:42:22;3.75;;;3.35;;
6113;SDS011;3087;48.392;10.836;2022-07-05T00:44:48;4.05;;;2.95;;
6113;SDS011;3087;48.392;10.836;2022-07-05T00:47:13;5.30;;;2.90;;
6113;SDS011;3087;48.392;10.836;2022-07-05T00:49:40;5.88;;;2.97;;
6113;SDS011;3087;48.392;10.836;2022-07-05T00:52:06;2.83;;;2.50;;
6113;SDS011;3087;48.392;10.836;2022-07-05T00:54:33;5.38;;;2.90;;
6113;SDS011;3087;48.392;10.836;2022-07-05T00:57:00;3.47;;;3.00;;
6113;SDS011;3087;48.392;10.836;2022-07-05T00:59:27;3.47;;;2.88;;
6113;SDS011;3087;48.392;10.836;2022-07-05T01:01:53;4.70;;;2.55;;
6113;SDS011;3087;48.392;10.836;2022-07-05T01:04:20;5.10;;;2.47;;
6113;SDS011;3087;48.392;10.836;2022-07-05T01:06:47;3.85;;;3.22;;
6113;SDS011;3087;48.392;10.836;2022-07-05T01:09:15;5.45;;;2.47;;
6113;SDS011;3087;48.392;10.836;2022-07-05T01:11:45;3.90;;;3.42;;
6113;SDS011;3087;48.392;10.836;2022-07-05T01:14:19;4.38;;;3.42;;
6113;SDS011;3087;48.392;10.836;2022-07-05T01:16:46;5.13;;;3.42;;
6113;SDS011;3087;48.392;10.836;2022-07-05T01:19:13;4.10;;;3.15;;
6113;SDS011;3087;48.392;10.836;2022-07-05T01:21:40;5.10;;;3.30;;
6113;SDS011;3087;48.392;10.836;2022-07-05T01:24:09;3.53;;;2.97;;
6113;SDS011;3087;48.392;10.836;2022-07-05T01:26:36;4.15;;;2.85;;
6113;SDS011;3087;48.392;10.836;2022-07-05T01:29:03;4.80;;;2.72;;
6113;SDS011;3087;48.392;10.836;2022-07-05T01:31:29;4.55;;;2.70;;
6113;SDS011;3087;48.392;10.836;2022-07-05T01:33:55;3.85;;;2.63;;
6113;SDS011;3087;48.392;10.836;2022-07-05T01:36:20;2.58;;;2.38;;
6113;SDS011;3087;48.392;10.836;2022-07-05T01:38:46;4.85;;;2.92;;
6113;SDS011;3087;48.392;10.836;2022-07-05T01:41:12;4.82;;;2.90;;
6113;SDS011;3087;48.392;10.836;2022-07-05T01:43:38;3.47;;;2.67;;
6113;SDS011;3087;48.392;10.836;2022-07-05T01:46:04;6.25;;;3.10;;
6113;SDS011;3087;48.392;10.836;2022-07-05T01:48:33;4.53;;;3.10;;
6113;SDS011;3087;48.392;10.836;2022-07-05T01:51:05;4.18;;;2.50;;
6113;SDS011;3087;48.392;10.836;2022-07-05T01:53:45;3.20;;;2.90;;
6113;SDS011;3087;48.392;10.836;2022-07-05T01:56:14;3.20;;;2.60;;
6113;SDS011;3087;48.392;10.836;2022-07-05T01:58:40;7.07;;;3.20;;
6113;SDS011;3087;48.392;10.836;2022-07-05T02:01:07;4.50;;;2.80;;
6113;SDS011;3087;48.392;10.836;2022-07-05T02:03:33;4.72;;;2.55;;
6113;SDS011;3087;48.392;10.836;2022-07-05T02:05:59;3.65;;;2.83;;
6113;SDS011;3087;48.392;10.836;2022-07-05T02:08:28;4.53;;;2.63;;
6113;SDS011;3087;48.392;10.836;2022-07-05T02:10:55;4.57;;;2.88;;
6113;SDS011;3087;48.392;10.836;2022-07-05T02:13:20;4.80;;;2.85;;
6113;SDS011;3087;48.392;10.836;2022-07-05T02:15:46;3.58;;;2.78;;
6113;SDS011;3087;48.392;10.836;2022-07-05T02:18:12;5.18;;;2.55;;
6113;SDS011;3087;48.392;10.836;2022-07-05T02:20:38;4.78;;;3.70;;
6113;SDS011;3087;48.392;10.836;2022-07-05T02:23:05;4.80;;;3.35;;
6113;SDS011;3087;48.392;10.836;2022-07-05T02:25:31;5.28;;;2.83;;
6113;SDS011;3087;48.392;10.836;2022-07-05T02:27:56;3.85;;;2.83;;
6113;SDS011;3087;48.392;10.836;2022-07-05T02:30:23;4.07;;;2.95;;
6113;SDS011;3087;48.392;10.836;2022-07-05T02:32:48;3.80;;;3.15;;
6113;SDS011;3087;48.392;10.836;2022-07-05T02:35:14;3.88;;;2.58;;
6113;SDS011;3087;48.392;10.836;2022-07-05T02:37:40;4.68;;;3.03;;
6113;SDS011;3087;48.392;10.836;2022-07-05T02:40:06;7.45;;;3.25;;
6113;SDS011;3087;48.392;10.836;2022-07-05T02:42:33;6.40;;;3.05;;
6113;SDS011;3087;48.392;10.836;2022-07-05T02:44:58;4.95;;;3.03;;
6113;SDS011;3087;48.392;10.836;2022-07-05T02:47:24;7.38;;;3.72;;
6113;SDS011;3087;48.392;10.836;2022-07-05T02:49:50;5.13;;;3.70;;
6113;SDS011;3087;48.392;10.836;2022-07-05T02:52:17;4.95;;;3.45;;
6113;SDS011;3087;48.392;10.836;2022-07-05T02:54:42;3.72;;;3.28;;
6113;SDS011;3087;48.392;10.836;2022-07-05T02:57:08;5.65;;;3.80;;
6113;SDS011;3087;48.392;10.836;2022-07-05T02:59:33;5.68;;;4.80;;
6113;SDS011;3087;48.392;10.836;2022-07-05T03:01:59;4.15;;;3.47;;
6113;SDS011;3087;48.392;10.836;2022-07-05T03:04:24;4.88;;;4.20;;
6113;SDS011;3087;48.392;10.836;2022-07-05T03:06:50;8.48;;;4.28;;
6113;SDS011;3087;48.392;10.836;2022-07-05T03:09:16;5.57;;;4.22;;
6113;SDS011;3087;48.392;10.836;2022-07-05T03:11:41;4.75;;;4.25;;
6113;SDS011;3087;48.392;10.836;2022-07-05T03:14:07;6.70;;;3.95;;
6113;SDS011;3087;48.392;10.836;2022-07-05T03:16:32;5.72;;;3.88;;
6113;SDS011;3087;48.392;10.836;2022-07-05T03:18:58;4.90;;;3.80;;
6113;SDS011;3087;48.392;10.836;2022-07-05T03:21:24;9.60;;;4.30;;
6113;SDS011;3087;48.392;10.836;2022-07-05T03:23:50;5.95;;;4.88;;
6113;SDS011;3087;48.392;10.836;2022-07-05T03:26:15;5.18;;;4.00;;
6113;SDS011;3087;48.392;10.836;2022-07-05T03:28:41;5.70;;;4.03;;
6113;SDS011;3087;48.392;10.836;2022-07-05T03:31:06;5.95;;;4.50;;
6113;SDS011;3087;48.392;10.836;2022-07-05T03:33:32;6.45;;;4.70;;
6113;SDS011;3087;48.392;10.836;2022-07-05T03:35:58;5.63;;;4.35;;
6113;SDS011;3087;48.392;10.836;2022-07-05T03:38:24;4.28;;;3.88;;
6113;SDS011;3087;48.392;10.836;2022-07-05T03:40:49;6.55;;;3.88;;
6113;SDS011;3087;48.392;10.836;2022-07-05T03:43:15;6.72;;;4.22;;
6113;SDS011;3087;48.392;10.836;2022-07-05T03:45:41;5.38;;;3.90;;
6113;SDS011;3087;48.392;10.836;2022-07-05T03:48:07;5.32;;;3.85;;
6113;SDS011;3087;48.392;10.836;2022-07-05T03:50:32;5.68;;;3.58;;
6113;SDS011;3087;48.392;10.836;2022-07-05T03:52:58;4.82;;;3.67;;
6113;SDS011;3087;48.392;10.836;2022-07-05T03:55:23;4.25;;;3.85;;
6113;SDS011;3087;48.392;10.836;2022-07-05T03:57:49;7.43;;;4.80;;
6113;SDS011;3087;48.392;10.836;2022-07-05T04:00:15;6.55;;;4.43;;
6113;SDS011;3087;48.392;10.836;2022-07-05T04:02:40;5.10;;;3.97;;
6113;SDS011;3087;48.392;10.836;2022-07-05T04:05:06;6.95;;;3.92;;
6113;SDS011;3087;48.392;10.836;2022-07-05T04:07:33;6.30;;;4.72;;
6113;SDS011;3087;48.392;10.836;2022-07-05T04:09:59;5.75;;;4.25;;
6113;SDS011;3087;48.392;10.836;2022-07-05T04:12:26;8.98;;;3.90;;
6113;SDS011;3087;48.392;10.836;2022-07-05T04:14:52;5.75;;;4.57;;
6113;SDS011;3087;48.392;10.836;2022-07-05T04:17:17;6.78;;;4.20;;
6113;SDS011;3087;48.392;10.836;2022-07-05T04:19:43;7.35;;;4.68;;
6113;SDS011;3087;48.392;10.836;2022-07-05T04:22:09;4.68;;;4.10;;
6113;SDS011;3087;48.392;10.836;2022-07-05T04:24:34;8.05;;;4.60;;
6113;SDS011;3087;48.392;10.836;2022-07-05T04:27:19;5.65;;;4.57;;
6113;SDS011;3087;48.392;10.836;2022-07-05T04:29:44;8.60;;;4.35;;
6113;SDS011;3087;48.392;10.836;2022-07-05T04:32:10;6.55;;;5.28;;
6113;SDS011;3087;48.392;10.836;2022-07-05T04:34:35;7.80;;;4.40;;
6113;SDS011;3087;48.392;10.836;2022-07-05T04:37:01;7.88;;;4.35;;
6113;SDS011;3087;48.392;10.836;2022-07-05T04:39:27;4.57;;;3.58;;
6113;SDS011;3087;48.392;10.836;2022-07-05T04:41:52;6.75;;;4.60;;
6113;SDS011;3087;48.392;10.836;2022-07-05T04:44:18;8.82;;;4.72;;
6113;SDS011;3087;48.392;10.836;2022-07-05T04:46:43;6.57;;;4.53;;
6113;SDS011;3087;48.392;10.836;2022-07-05T04:49:09;6.40;;;4.70;;
6113;SDS011;3087;48.392;10.836;2022-07-05T04:51:34;7.40;;;4.50;;
6113;SDS011;3087;48.392;10.836;2022-07-05T04:54:00;5.07;;;4.30;;
6113;SDS011;3087;48.392;10.836;2022-07-05T04:56:26;5.65;;;4.43;;
6113;SDS011;3087;48.392;10.836;2022-07-05T04:58:51;7.65;;;4.65;;
6113;SDS011;3087;48.392;10.836;2022-07-05T05:01:17;5.72;;;4.10;;
6113;SDS011;3087;48.392;10.836;2022-07-05T05:03:43;6.55;;;3.83;;
6113;SDS011;3087;48.392;10.836;2022-07-05T05:06:08;6.70;;;4.47;;
6113;SDS011;3087;48.392;10.836;2022-07-05T05:08:34;4.78;;;4.07;;
6113;SDS011;3087;48.392;10.836;2022-07-05T05:11:00;7.18;;;4.38;;
6113;SDS011;3087;48.392;10.836;2022-07-05T05:13:25;6.05;;;4.38;;
6113;SDS011;3087;48.392;10.836;2022-07-05T05:15:51;5.18;;;4.15;;
6113;SDS011;3087;48.392;10.836;2022-07-05T05:18:16;6.55;;;4.55;;
6113;SDS011;3087;48.392;10.836;2022-07-05T05:20:43;5.20;;;4.28;;
6113;SDS011;3087;48.392;10.836;2022-07-05T05:23:09;6.80;;;4.65;;
6113;SDS011;3087;48.392;10.836;2022-07-05T05:25:35;7.80;;;4.60;;
6113;SDS011;3087;48.392;10.836;2022-07-05T05:28:01;5.45;;;4.00;;
6113;SDS011;3087;48.392;10.836;2022-07-05T05:30:27;3.88;;;3.42;;
6113;SDS011;3087;48.392;10.836;2022-07-05T05:32:52;5.18;;;4.10;;
6113;SDS011;3087;48.392;10.836;2022-07-05T05:35:18;7.00;;;4.03;;
6113;SDS011;3087;48.392;10.836;2022-07-05T05:37:52;6.22;;;4.10;;
6113;SDS011;3087;48.392;10.836;2022-07-05T05:40:20;7.65;;;4.97;;
6113;SDS011;3087;48.392;10.836;2022-07-05T05:42:48;4.53;;;3.78;;
6113;SDS011;3087;48.392;10.836;2022-07-05T05:45:15;5.80;;;4.43;;
6113;SDS011;3087;48.392;10.836;2022-07-05T05:47:42;7.10;;;4.40;;
6113;SDS011;3087;48.392;10.836;2022-07-05T05:50:19;5.78;;;4.35;;
6113;SDS011;3087;48.392;10.836;2022-07-05T05:52:49;8.05;;;5.18;;
6113;SDS011;3087;48.392;10.836;2022-07-05T05:55:15;6.90;;;4.22;;
6113;SDS011;3087;48.392;10.836;2022-07-05T05:57:41;5.55;;;4.05;;
6113;SDS011;3087;48.392;10.836;2022-07-05T06:00:07;5.43;;;4.07;;
6113;SDS011;3087;48.392;10.836;2022-07-05T06:02:34;6.50;;;4.07;;
6113;SDS011;3087;48.392;10.836;2022-07-05T06:05:00;5.50;;;3.45;;
6113;SDS011;3087;48.392;10.836;2022-07-05T06:07:25;6.93;;;3.60;;
6113;SDS011;3087;48.392;10.836;2022-07-05T06:09:51;5.32;;;3.53;;
6113;SDS011;3087;48.392;10.836;2022-07-05T06:12:17;4.68;;;3.78;;
6113;SDS011;3087;48.392;10.836;2022-07-05T06:14:42;4.55;;;3.28;;
6113;SDS011;3087;48.392;10.836;2022-07-05T06:17:08;5.43;;;3.53;;
6113;SDS011;3087;48.392;10.836;2022-07-05T06:19:33;3.50;;;3.20;;
6113;SDS011;3087;48.392;10.836;2022-07-05T06:21:59;6.43;;;3.28;;
6113;SDS011;3087;48.392;10.836;2022-07-05T06:24:24;4.25;;;3.17;;
6113;SDS011;3087;48.392;10.836;2022-07-05T06:26:50;6.75;;;4.20;;
6113;SDS011;3087;48.392;10.836;2022-07-05T06:29:16;5.50;;;3.88;;
6113;SDS011;3087;48.392;10.836;2022-07-05T06:31:41;4.45;;;3.75;;
6113;SDS011;3087;48.392;10.836;2022-07-05T06:34:07;5.03;;;3.10;;
6113;SDS011;3087;48.392;10.836;2022-07-05T06:36:33;4.50;;;3.55;;
6113;SDS011;3087;48.392;10.836;2022-07-05T06:38:58;4.20;;;2.92;;
6113;SDS011;3087;48.392;10.836;2022-07-05T06:41:24;4.88;;;3.45;;
6113;SDS011;3087;48.392;10.836;2022-07-05T06:43:49;4.68;;;2.83;;
6113;SDS011;3087;48.392;10.836;2022-07-05T06:46:15;3.63;;;3.15;;
6113;SDS011;3087;48.392;10.836;2022-07-05T06:48:41;6.63;;;3.15;;
6113;SDS011;3087;48.392;10.836;2022-07-05T06:51:06;5.55;;;3.95;;
6113;SDS011;3087;48.392;10.836;2022-07-05T06:53:32;6.95;;;3.72;;
6113;SDS011;3087;48.392;10.836;2022-07-05T06:55:58;8.82;;;4.82;;
6113;SDS011;3087;48.392;10.836;2022-07-05T06:58:23;7.70;;;4.68;;
6113;SDS011;3087;48.392;10.836;2022-07-05T07:00:49;6.47;;;3.47;;
6113;SDS011;3087;48.392;10.836;2022-07-05T07:03:15;6.43;;;4.13;;
6113;SDS011;3087;48.392;10.836;2022-07-05T07:05:41;5.38;;;4.03;;
6113;SDS011;3087;48.392;10.836;2022-07-05T07:08:07;4.43;;;3.85;;
6113;SDS011;3087;48.392;10.836;2022-07-05T07:10:51;4.25;;;3.60;;
6113;SDS011;3087;48.392;10.836;2022-07-05T07:13:16;6.75;;;4.00;;
6113;SDS011;3087;48.392;10.836;2022-07-05T07:15:42;6.43;;;3.78;;
6113;SDS011;3087;48.392;10.836;2022-07-05T07:18:08;4.53;;;3.00;;
6113;SDS011;3087;48.392;10.836;2022-07-05T07:20:34;3.42;;;2.88;;
6113;SDS011;3087;48.392;10.836;2022-07-05T07:22:59;6.65;;;3.47;;
6113;SDS011;3087;48.392;10.836;2022-07-05T07:25:25;4.57;;;3.63;;
6113;SDS011;3087;48.392;10.836;2022-07-05T07:27:51;5.85;;;3.60;;
6113;SDS011;3087;48.392;10.836;2022-07-05T07:30:19;3.60;;;3.05;;
6113;SDS011;3087;48.392;10.836;2022-07-05T07:32:49;6.82;;;4.00;;
6113;SDS011;3087;48.392;10.836;2022-07-05T07:35:15;5.53;;;3.40;;
6113;SDS011;3087;48.392;10.836;2022-07-05T07:37:41;3.67;;;3.38;;
6113;SDS011;3087;48.392;10.836;2022-07-05T07:40:07;4.85;;;3.53;;
6113;SDS011;3087;48.392;10.836;2022-07-05T07:42:33;4.72;;;3.03;;
6113;SDS011;3087;48.392;10.836;2022-07-05T07:44:59;7.40;;;2.95;;
6113;SDS011;3087;48.392;10.836;2022-07-05T07:47:28;9.95;;;2.72;;
6113;SDS011;3087;48.392;10.836;2022-07-05T07:49:54;3.40;;;2.80;;
6113;SDS011;3087;48.392;10.836;2022-07-05T07:52:20;8.30;;;3.55;;
6113;SDS011;3087;48.392;10.836;2022-07-05T07:54:46;4.68;;;3.22;;
6113;SDS011;3087;48.392;10.836;2022-07-05T07:57:11;4.53;;;3.55;;
6113;SDS011;3087;48.392;10.836;2022-07-05T07:59:37;46.53;;;9.23;;
6113;SDS011;3087;48.392;10.836;2022-07-05T08:02:02;9.05;;;3.70;;
6113;SDS011;3087;48.392;10.836;2022-07-05T08:04:28;4.30;;;3.42;;
6113;SDS011;3087;48.392;10.836;2022-07-05T08:06:54;5.47;;;3.25;;
6113;SDS011;3087;48.392;10.836;2022-07-05T08:09:20;6.40;;;3.38;;
6113;SDS011;3087;48.392;10.836;2022-07-05T08:11:46;4.80;;;3.33;;
6113;SDS011;3087;48.392;10.836;2022-07-05T08:14:12;10.52;;;3.40;;
6113;SDS011;3087;48.392;10.836;2022-07-05T08:16:39;4.25;;;2.53;;
6113;SDS011;3087;48.392;10.836;2022-07-05T08:19:04;6.43;;;3.47;;
6113;SDS011;3087;48.392;10.836;2022-07-05T08:21:48;5.05;;;3.15;;
6113;SDS011;3087;48.392;10.836;2022-07-05T08:24:14;6.88;;;4.57;;
6113;SDS011;3087;48.392;10.836;2022-07-05T08:26:40;6.88;;;3.40;;
6113;SDS011;3087;48.392;10.836;2022-07-05T08:29:07;3.83;;;3.08;;
6113;SDS011;3087;48.392;10.836;2022-07-05T08:31:36;5.40;;;3.20;;
6113;SDS011;3087;48.392;10.836;2022-07-05T08:34:03;4.75;;;2.90;;
6113;SDS011;3087;48.392;10.836;2022-07-05T08:36:29;11.35;;;3.75;;
6113;SDS011;3087;48.392;10.836;2022-07-05T08:38:54;5.55;;;2.65;;
6113;SDS011;3087;48.392;10.836;2022-07-05T08:41:21;3.88;;;2.50;;
6113;SDS011;3087;48.392;10.836;2022-07-05T08:43:47;5.82;;;2.88;;
6113;SDS011;3087;48.392;10.836;2022-07-05T08:46:15;5.97;;;3.25;;
6113;SDS011;3087;48.392;10.836;2022-07-05T08:48:41;4.95;;;2.97;;
6113;SDS011;3087;48.392;10.836;2022-07-05T08:51:14;3.22;;;2.55;;
6113;SDS011;3087;48.392;10.836;2022-07-05T08:53:46;6.78;;;2.85;;
6113;SDS011;3087;48.392;10.836;2022-07-05T08:56:12;8.05;;;2.38;;
6113;SDS011;3087;48.392;10.836;2022-07-05T08:58:39;8.15;;;3.08;;
6113;SDS011;3087;48.392;10.836;2022-07-05T09:01:06;5.97;;;3.17;;
6113;SDS011;3087;48.392;10.836;2022-07-05T09:06:01;3.47;;;2.20;;
6113;SDS011;3087;48.392;10.836;2022-07-05T09:08:29;3.22;;;2.30;;
6113;SDS011;3087;48.392;10.836;2022-07-05T09:10:59;3.03;;;2.17;;
6113;SDS011;3087;48.392;10.836;2022-07-05T09:13:28;3.58;;;2.20;;
6113;SDS011;3087;48.392;10.836;2022-07-05T09:16:00;3.17;;;2.50;;
6113;SDS011;3087;48.392;10.836;2022-07-05T09:18:42;2.92;;;2.03;;
6113;SDS011;3087;48.392;10.836;2022-07-05T09:21:13;2.90;;;2.10;;
6113;SDS011;3087;48.392;10.836;2022-07-05T09:23:56;3.50;;;2.08;;
6113;SDS011;3087;48.392;10.836;2022-07-05T09:26:36;4.63;;;2.00;;
6113;SDS011;3087;48.392;10.836;2022-07-05T09:29:10;4.18;;;2.03;;
6113;SDS011;3087;48.392;10.836;2022-07-05T09:31:37;5.15;;;2.10;;
6113;SDS011;3087;48.392;10.836;2022-07-05T09:34:06;4.78;;;2.15;;
6113;SDS011;3087;48.392;10.836;2022-07-05T09:36:52;2.63;;;2.22;;
6113;SDS011;3087;48.392;10.836;2022-07-05T09:39:18;3.60;;;1.92;;
6113;SDS011;3087;48.392;10.836;2022-07-05T09:44:38;2.33;;;1.67;;
6113;SDS011;3087;48.392;10.836;2022-07-05T09:47:09;4.35;;;2.00;;
6113;SDS011;3087;48.392;10.836;2022-07-05T09:49:58;2.88;;;2.00;;
6113;SDS011;3087;48.392;10.836;2022-07-05T09:57:41;3.25;;;1.80;;
6113;SDS011;3087;48.392;10.836;2022-07-05T10:00:12;2.10;;;1.85;;
6113;SDS011;3087;48.392;10.836;2022-07-05T10:02:41;4.13;;;1.75;;
6113;SDS011;3087;48.392;10.836;2022-07-05T10:05:11;1.77;;;1.67;;
6113;SDS011;3087;48.392;10.836;2022-07-05T10:07:47;4.32;;;1.80;;
6113;SDS011;3087;48.392;10.836;2022-07-05T10:10:21;1.90;;;1.50;;
6113;SDS011;3087;48.392;10.836;2022-07-05T10:12:51;3.95;;;1.90;;
6113;SDS011;3087;48.392;10.836;2022-07-05T10:15:25;4.45;;;1.90;;
6113;SDS011;3087;48.392;10.836;2022-07-05T10:17:53;3.15;;;1.80;;
6113;SDS011;3087;48.392;10.836;2022-07-05T10:20:23;3.55;;;1.95;;
6113;SDS011;3087;48.392;10.836;2022-07-05T10:23:06;2.67;;;1.95;;
6113;SDS011;3087;48.392;10.836;2022-07-05T10:25:42;4.35;;;2.15;;
6113;SDS011;3087;48.392;10.836;2022-07-05T10:28:12;4.32;;;2.10;;
6113;SDS011;3087;48.392;10.836;2022-07-05T10:30:40;3.90;;;3.50;;
6113;SDS011;3087;48.392;10.836;2022-07-05T10:33:07;2.75;;;1.90;;
6113;SDS011;3087;48.392;10.836;2022-07-05T10:35:33;2.47;;;1.90;;
6113;SDS011;3087;48.392;10.836;2022-07-05T10:38:00;3.95;;;1.73;;
6113;SDS011;3087;48.392;10.836;2022-07-05T10:40:28;2.60;;;1.83;;
6113;SDS011;3087;48.392;10.836;2022-07-05T10:42:58;2.97;;;1.80;;
6113;SDS011;3087;48.392;10.836;2022-07-05T10:53:26;3.90;;;1.90;;
6113;SDS011;3087;48.392;10.836;2022-07-05T10:55:56;2.47;;;1.80;;
6113;SDS011;3087;48.392;10.836;2022-07-05T10:58:27;3.08;;;1.70;;
6113;SDS011;3087;48.392;10.836;2022-07-05T11:06:29;4.85;;;1.92;;
6113;SDS011;3087;48.392;10.836;2022-07-05T11:11:37;5.07;;;1.98;;
6113;SDS011;3087;48.392;10.836;2022-07-05T11:14:29;3.88;;;2.55;;
6113;SDS011;3087;48.392;10.836;2022-07-05T11:25:29;10.23;;;2.80;;
6113;SDS011;3087;48.392;10.836;2022-07-05T11:28:00;7.05;;;2.40;;
6113;SDS011;3087;48.392;10.836;2022-07-05T11:36:22;3.05;;;1.73;;
6113;SDS011;3087;48.392;10.836;2022-07-05T11:39:08;2.30;;;1.80;;
6113;SDS011;3087;48.392;10.836;2022-07-05T11:41:46;2.80;;;2.35;;
6113;SDS011;3087;48.392;10.836;2022-07-05T11:44:12;2.97;;;2.03;;
6113;SDS011;3087;48.392;10.836;2022-07-05T11:46:42;5.05;;;2.03;;
6113;SDS011;3087;48.392;10.836;2022-07-05T11:49:08;2.50;;;1.73;;
6113;SDS011;3087;48.392;10.836;2022-07-05T11:51:34;2.00;;;1.80;;
6113;SDS011;3087;48.392;10.836;2022-07-05T11:54:00;4.97;;;1.85;;
6113;SDS011;3087;48.392;10.836;2022-07-05T11:56:27;2.03;;;1.70;;
6113;SDS011;3087;48.392;10.836;2022-07-05T11:58:53;8.43;;;2.88;;
6113;SDS011;3087;48.392;10.836;2022-07-05T12:01:18;8.32;;;2.90;;
6113;SDS011;3087;48.392;10.836;2022-07-05T12:03:53;30.90;;;6.93;;
6113;SDS011;3087;48.392;10.836;2022-07-05T12:06:20;5.32;;;2.30;;
6113;SDS011;3087;48.392;10.836;2022-07-05T12:09:00;5.68;;;2.50;;
6113;SDS011;3087;48.392;10.836;2022-07-05T12:11:29;3.08;;;1.70;;
6113;SDS011;3087;48.392;10.836;2022-07-05T12:14:24;3.42;;;1.70;;
6113;SDS011;3087;48.392;10.836;2022-07-05T12:17:09;2.20;;;2.00;;
6113;SDS011;3087;48.392;10.836;2022-07-05T12:19:45;2.85;;;1.63;;
6113;SDS011;3087;48.392;10.836;2022-07-05T12:22:11;2.13;;;1.67;;
6113;SDS011;3087;48.392;10.836;2022-07-05T12:24:37;16.77;;;4.68;;
6113;SDS011;3087;48.392;10.836;2022-07-05T12:27:04;3.80;;;1.63;;
6113;SDS011;3087;48.392;10.836;2022-07-05T12:29:30;3.33;;;2.03;;
6113;SDS011;3087;48.392;10.836;2022-07-05T12:31:59;3.70;;;1.92;;
6113;SDS011;3087;48.392;10.836;2022-07-05T12:34:29;2.53;;;1.58;;
6113;SDS011;3087;48.392;10.836;2022-07-05T12:36:55;3.28;;;1.75;;
6113;SDS011;3087;48.392;10.836;2022-07-05T12:39:22;4.63;;;2.00;;
6113;SDS011;3087;48.392;10.836;2022-07-05T12:41:48;2.50;;;1.77;;
6113;SDS011;3087;48.392;10.836;2022-07-05T12:44:17;2.90;;;2.00;;
6113;SDS011;3087;48.392;10.836;2022-07-05T12:46:44;3.05;;;1.60;;
6113;SDS011;3087;48.392;10.836;2022-07-05T12:49:11;1.58;;;1.48;;
6113;SDS011;3087;48.392;10.836;2022-07-05T12:51:38;2.17;;;1.98;;
6113;SDS011;3087;48.392;10.836;2022-07-05T12:54:06;2.97;;;1.95;;
6113;SDS011;3087;48.392;10.836;2022-07-05T12:56:51;2.80;;;1.90;;
6113;SDS011;3087;48.392;10.836;2022-07-05T12:59:36;7.22;;;1.70;;
6113;SDS011;3087;48.392;10.836;2022-07-05T13:02:03;2.88;;;1.70;;
6113;SDS011;3087;48.392;10.836;2022-07-05T13:04:29;1.92;;;1.63;;
6113;SDS011;3087;48.392;10.836;2022-07-05T13:14:32;4.28;;;1.88;;
6113;SDS011;3087;48.392;10.836;2022-07-05T13:16:59;5.60;;;2.30;;
6113;SDS011;3087;48.392;10.836;2022-07-05T13:19:25;3.42;;;2.13;;
6113;SDS011;3087;48.392;10.836;2022-07-05T13:21:50;2.40;;;1.90;;
6113;SDS011;3087;48.392;10.836;2022-07-05T13:24:16;3.65;;;2.20;;
6113;SDS011;3087;48.392;10.836;2022-07-05T13:26:41;2.35;;;1.92;;
6113;SDS011;3087;48.392;10.836;2022-07-05T13:29:07;3.05;;;2.05;;
6113;SDS011;3087;48.392;10.836;2022-07-05T13:31:33;9.52;;;2.33;;
6113;SDS011;3087;48.392;10.836;2022-07-05T13:33:59;3.78;;;1.98;;
6113;SDS011;3087;48.392;10.836;2022-07-05T13:36:25;2.97;;;2.22;;
6113;SDS011;3087;48.392;10.836;2022-07-05T13:38:51;2.42;;;2.00;;
6113;SDS011;3087;48.392;10.836;2022-07-05T13:41:17;3.97;;;2.17;;
6113;SDS011;3087;48.392;10.836;2022-07-05T13:43:43;4.45;;;2.00;;
6113;SDS011;3087;48.392;10.836;2022-07-05T13:46:09;4.55;;;2.45;;
6113;SDS011;3087;48.392;10.836;2022-07-05T13:48:36;2.78;;;2.08;;
6113;SDS011;3087;48.392;10.836;2022-07-05T13:51:02;2.80;;;2.10;;
6113;SDS011;3087;48.392;10.836;2022-07-05T13:53:27;3.17;;;2.00;;
6113;SDS011;3087;48.392;10.836;2022-07-05T13:55:53;7.28;;;2.20;;
6113;SDS011;3087;48.392;10.836;2022-07-05T13:58:18;3.00;;;1.98;;
6113;SDS011;3087;48.392;10.836;2022-07-05T14:00:44;3.72;;;2.20;;
6113;SDS011;3087;48.392;10.836;2022-07-05T14:03:10;2.50;;;2.22;;
6113;SDS011;3087;48.392;10.836;2022-07-05T14:05:35;2.67;;;1.92;;
6113;SDS011;3087;48.392;10.836;2022-07-05T14:08:01;4.85;;;2.70;;
6113;SDS011;3087;48.392;10.836;2022-07-05T14:10:27;2.72;;;2.13;;
6113;SDS011;3087;48.392;10.836;2022-07-05T14:12:52;2.90;;;2.08;;
6113;SDS011;3087;48.392;10.836;2022-07-05T14:15:19;2.35;;;2.15;;
6113;SDS011;3087;48.392;10.836;2022-07-05T14:17:44;2.90;;;2.17;;
6113;SDS011;3087;48.392;10.836;2022-07-05T14:20:10;4.18;;;1.90;;
6113;SDS011;3087;48.392;10.836;2022-07-05T14:22:36;3.88;;;1.88;;
6113;SDS011;3087;48.392;10.836;2022-07-05T14:25:02;2.85;;;1.70;;
6113;SDS011;3087;48.392;10.836;2022-07-05T14:27:27;5.55;;;2.20;;
6113;SDS011;3087;48.392;10.836;2022-07-05T14:29:53;11.57;;;3.78;;
6113;SDS011;3087;48.392;10.836;2022-07-05T14:32:19;2.22;;;1.98;;
6113;SDS011;3087;48.392;10.836;2022-07-05T14:34:44;3.30;;;2.33;;
6113;SDS011;3087;48.392;10.836;2022-07-05T14:37:10;5.03;;;2.22;;
6113;SDS011;3087;48.392;10.836;2022-07-05T14:39:35;4.38;;;2.45;;
6113;SDS011;3087;48.392;10.836;2022-07-05T14:42:01;2.80;;;1.88;;
6113;SDS011;3087;48.392;10.836;2022-07-05T14:44:27;6.53;;;2.15;;
6113;SDS011;3087;48.392;10.836;2022-07-05T14:46:53;3.55;;;2.20;;
6113;SDS011;3087;48.392;10.836;2022-07-05T14:49:19;2.67;;;2.15;;
6113;SDS011;3087;48.392;10.836;2022-07-05T14:51:44;3.17;;;2.40;;
6113;SDS011;3087;48.392;10.836;2022-07-05T14:54:10;3.55;;;1.80;;
6113;SDS011;3087;48.392;10.836;2022-07-05T14:56:35;2.75;;;2.05;;
6113;SDS011;3087;48.392;10.836;2022-07-05T14:59:01;2.92;;;1.90;;
6113;SDS011;3087;48.392;10.836;2022-07-05T15:01:26;2.72;;;2.25;;
6113;SDS011;3087;48.392;10.836;2022-07-05T15:03:52;2.92;;;2.08;;
6113;SDS011;3087;48.392;10.836;2022-07-05T15:06:18;3.60;;;3.17;;
6113;SDS011;3087;48.392;10.836;2022-07-05T15:08:43;3.55;;;1.95;;
6113;SDS011;3087;48.392;10.836;2022-07-05T15:11:09;5.68;;;2.00;;
6113;SDS011;3087;48.392;10.836;2022-07-05T15:13:34;2.65;;;2.00;;
6113;SDS011;3087;48.392;10.836;2022-07-05T15:16:00;3.17;;;2.38;;
6113;SDS011;3087;48.392;10.836;2022-07-05T15:18:26;2.97;;;2.10;;
6113;SDS011;3087;48.392;10.836;2022-07-05T15:20:52;2.45;;;2.08;;
6113;SDS011;3087;48.392;10.836;2022-07-05T15:23:21;3.55;;;2.10;;
6113;SDS011;3087;48.392;10.836;2022-07-05T15:25:46;2.30;;;1.90;;
6113;SDS011;3087;48.392;10.836;2022-07-05T15:28:12;3.75;;;2.00;;
6113;SDS011;3087;48.392;10.836;2022-07-05T15:30:40;4.38;;;2.25;;
6113;SDS011;3087;48.392;10.836;2022-07-05T15:33:06;2.40;;;1.95;;
6113;SDS011;3087;48.392;10.836;2022-07-05T15:35:32;2.25;;;2.03;;
6113;SDS011;3087;48.392;10.836;2022-07-05T15:37:58;4.47;;;1.75;;
6113;SDS011;3087;48.392;10.836;2022-07-05T15:40:24;5.78;;;2.00;;
6113;SDS011;3087;48.392;10.836;2022-07-05T15:42:50;2.30;;;2.08;;
6113;SDS011;3087;48.392;10.836;2022-07-05T15:45:15;2.58;;;2.20;;
6113;SDS011;3087;48.392;10.836;2022-07-05T15:47:41;2.70;;;1.83;;
6113;SDS011;3087;48.392;10.836;2022-07-05T15:50:07;6.10;;;1.90;;